sensor_id;sensor_type;location;lat;lon;timestamp;P1;durP1;ratioP1;P2;durP2;ratioP2
77304;SDS011;66364;52.622;7.746;2023-01-28T00:01:18;15.00;;;13.50;;
77304;SDS011;66364;52.622;7.746;2023-01-28T00:03:19;15.43;;;13.83;;
77304;SDS011;66364;52.622;7.746;2023-01-28T00:05:19;14.57;;;13.10;;
77304;SDS011;66364;52.622;7.746;2023-01-28T00:07:20;15.78;;;13.88;;
77304;SDS011;66364;52.622;7.746;2023-01-28T00:09:22;14.05;;;12.65;;
77304;SDS011;66364;52.622;7.746;2023-01-28T00:11:23;14.27;;;12.87;;
77304;SDS011;66364;52.622;7.746;2023-01-28T00:13:24;15.40;;;13.40;;
77304;SDS011;66364;52.622;7.746;2023-01-28T00:15:25;15.50;;;13.13;;
77304;SDS011;66364;52.622;7.746;2023-01-28T00:17:27;14.55;;;13.05;;
77304;SDS011;66364;52.622;7.746;2023-01-28T00:19:28;16.07;;;14.37;;
77304;SDS011;66364;52.622;7.746;2023-01-28T00:21:29;14.98;;;13.58;;
77304;SDS011;66364;52.622;7.746;2023-01-28T00:23:31;15.35;;;13.78;;
77304;SDS011;66364;52.622;7.746;2023-01-28T00:25:33;15.32;;;13.75;;
77304;SDS011;66364;52.622;7.746;2023-01-28T00:27:34;17.48;;;15.68;;
77304;SDS011;66364;52.622;7.746;2023-01-28T00:29:36;15.85;;;14.18;;
77304;SDS011;66364;52.622;7.746;2023-01-28T00:31:38;14.85;;;13.22;;
77304;SDS011;66364;52.622;7.746;2023-01-28T00:33:39;15.72;;;13.98;;
77304;SDS011;66364;52.622;7.746;2023-01-28T00:35:40;16.17;;;14.47;;
77304;SDS011;66364;52.622;7.746;2023-01-28T00:37:44;15.83;;;14.00;;
77304;SDS011;66364;52.622;7.746;2023-01-28T00:39:46;17.07;;;15.38;;
77304;SDS011;66364;52.622;7.746;2023-01-28T00:41:46;16.27;;;14.67;;
77304;SDS011;66364;52.622;7.746;2023-01-28T00:43:47;16.40;;;14.60;;
77304;SDS011;66364;52.622;7.746;2023-01-28T00:45:49;15.08;;;13.38;;
77304;SDS011;66364;52.622;7.746;2023-01-28T00:47:50;16.23;;;14.50;;
77304;SDS011;66364;52.622;7.746;2023-01-28T00:49:51;17.13;;;13.47;;
77304;SDS011;66364;52.622;7.746;2023-01-28T00:51:52;16.40;;;14.50;;
77304;SDS011;66364;52.622;7.746;2023-01-28T00:53:53;17.30;;;15.47;;
77304;SDS011;66364;52.622;7.746;2023-01-28T00:55:55;16.25;;;14.60;;
77304;SDS011;66364;52.622;7.746;2023-01-28T00:57:56;15.68;;;14.07;;
77304;SDS011;66364;52.622;7.746;2023-01-28T00:59:57;17.00;;;15.30;;
77304;SDS011;66364;52.622;7.746;2023-01-28T01:01:58;17.82;;;15.93;;
77304;SDS011;66364;52.622;7.746;2023-01-28T01:03:59;17.55;;;15.50;;
77304;SDS011;66364;52.622;7.746;2023-01-28T01:06:00;17.23;;;15.32;;
77304;SDS011;66364;52.622;7.746;2023-01-28T01:08:01;16.75;;;14.95;;
77304;SDS011;66364;52.622;7.746;2023-01-28T01:10:10;17.62;;;15.20;;
77304;SDS011;66364;52.622;7.746;2023-01-28T01:12:15;16.60;;;14.90;;
77304;SDS011;66364;52.622;7.746;2023-01-28T01:14:17;17.77;;;15.50;;
77304;SDS011;66364;52.622;7.746;2023-01-28T01:16:17;17.63;;;15.77;;
77304;SDS011;66364;52.622;7.746;2023-01-28T01:18:18;15.50;;;13.90;;
77304;SDS011;66364;52.622;7.746;2023-01-28T01:20:21;18.87;;;15.63;;
77304;SDS011;66364;52.622;7.746;2023-01-28T01:22:23;16.82;;;15.10;;
77304;SDS011;66364;52.622;7.746;2023-01-28T01:24:25;17.32;;;15.43;;
77304;SDS011;66364;52.622;7.746;2023-01-28T01:26:26;16.55;;;14.75;;
77304;SDS011;66364;52.622;7.746;2023-01-28T01:28:27;16.42;;;14.83;;
77304;SDS011;66364;52.622;7.746;2023-01-28T01:30:28;18.13;;;16.23;;
77304;SDS011;66364;52.622;7.746;2023-01-28T01:32:29;20.23;;;16.90;;
77304;SDS011;66364;52.622;7.746;2023-01-28T01:34:31;17.45;;;15.00;;
77304;SDS011;66364;52.622;7.746;2023-01-28T01:36:32;18.63;;;16.70;;
77304;SDS011;66364;52.622;7.746;2023-01-28T01:38:33;16.73;;;14.90;;
77304;SDS011;66364;52.622;7.746;2023-01-28T01:40:34;19.52;;;15.25;;
77304;SDS011;66364;52.622;7.746;2023-01-28T01:42:35;19.20;;;16.90;;
77304;SDS011;66364;52.622;7.746;2023-01-28T01:44:53;17.23;;;15.38;;
77304;SDS011;66364;52.622;7.746;2023-01-28T01:47:07;19.90;;;17.10;;
77304;SDS011;66364;52.622;7.746;2023-01-28T01:49:14;23.45;;;17.95;;
77304;SDS011;66364;52.622;7.746;2023-01-28T01:51:18;17.12;;;15.38;;
77304;SDS011;66364;52.622;7.746;2023-01-28T01:53:21;16.93;;;14.98;;
77304;SDS011;66364;52.622;7.746;2023-01-28T01:55:26;19.42;;;17.37;;
77304;SDS011;66364;52.622;7.746;2023-01-28T01:57:31;17.62;;;15.75;;
77304;SDS011;66364;52.622;7.746;2023-01-28T01:59:34;17.90;;;15.32;;
77304;SDS011;66364;52.622;7.746;2023-01-28T02:01:36;19.55;;;16.00;;
77304;SDS011;66364;52.622;7.746;2023-01-28T02:03:45;21.42;;;17.35;;
77304;SDS011;66364;52.622;7.746;2023-01-28T02:05:42;18.48;;;16.48;;
77304;SDS011;66364;52.622;7.746;2023-01-28T02:07:44;18.62;;;15.80;;
77304;SDS011;66364;52.622;7.746;2023-01-28T02:09:46;17.37;;;15.15;;
77304;SDS011;66364;52.622;7.746;2023-01-28T02:11:47;18.98;;;15.68;;
77304;SDS011;66364;52.622;7.746;2023-01-28T02:13:50;19.17;;;16.73;;
77304;SDS011;66364;52.622;7.746;2023-01-28T02:15:54;19.42;;;15.75;;
77304;SDS011;66364;52.622;7.746;2023-01-28T02:17:55;19.45;;;16.17;;
77304;SDS011;66364;52.622;7.746;2023-01-28T02:20:00;17.77;;;15.20;;
77304;SDS011;66364;52.622;7.746;2023-01-28T02:33:45;18.92;;;16.93;;
77304;SDS011;66364;52.622;7.746;2023-01-28T02:35:52;20.20;;;17.32;;
77304;SDS011;66364;52.622;7.746;2023-01-28T02:37:52;18.75;;;15.88;;
77304;SDS011;66364;52.622;7.746;2023-01-28T02:39:58;19.55;;;16.32;;
77304;SDS011;66364;52.622;7.746;2023-01-28T02:42:13;19.48;;;16.45;;
77304;SDS011;66364;52.622;7.746;2023-01-28T02:44:16;19.75;;;16.75;;
77304;SDS011;66364;52.622;7.746;2023-01-28T02:48:22;20.68;;;16.45;;
77304;SDS011;66364;52.622;7.746;2023-01-28T02:50:25;20.45;;;16.70;;
77304;SDS011;66364;52.622;7.746;2023-01-28T02:52:29;19.35;;;15.98;;
77304;SDS011;66364;52.622;7.746;2023-01-28T02:54:48;20.12;;;16.42;;
77304;SDS011;66364;52.622;7.746;2023-01-28T02:59:30;16.73;;;14.93;;
77304;SDS011;66364;52.622;7.746;2023-01-28T03:04:40;20.15;;;16.90;;
77304;SDS011;66364;52.622;7.746;2023-01-28T03:06:40;19.65;;;15.75;;
77304;SDS011;66364;52.622;7.746;2023-01-28T03:08:49;19.45;;;16.97;;
77304;SDS011;66364;52.622;7.746;2023-01-28T03:10:53;19.35;;;16.32;;
77304;SDS011;66364;52.622;7.746;2023-01-28T03:12:56;17.50;;;15.53;;
77304;SDS011;66364;52.622;7.746;2023-01-28T03:15:05;18.65;;;15.70;;
77304;SDS011;66364;52.622;7.746;2023-01-28T03:17:22;18.90;;;16.60;;
77304;SDS011;66364;52.622;7.746;2023-01-28T03:19:38;18.00;;;15.80;;
77304;SDS011;66364;52.622;7.746;2023-01-28T03:21:39;18.40;;;16.30;;
77304;SDS011;66364;52.622;7.746;2023-01-28T03:23:51;20.77;;;17.23;;
77304;SDS011;66364;52.622;7.746;2023-01-28T03:25:55;19.98;;;17.87;;
77304;SDS011;66364;52.622;7.746;2023-01-28T03:28:00;18.82;;;16.65;;
77304;SDS011;66364;52.622;7.746;2023-01-28T03:30:11;20.90;;;18.10;;
77304;SDS011;66364;52.622;7.746;2023-01-28T03:32:14;19.80;;;17.48;;
77304;SDS011;66364;52.622;7.746;2023-01-28T03:34:17;19.40;;;17.30;;
77304;SDS011;66364;52.622;7.746;2023-01-28T03:36:22;18.90;;;16.67;;
77304;SDS011;66364;52.622;7.746;2023-01-28T03:38:23;19.05;;;16.32;;
77304;SDS011;66364;52.622;7.746;2023-01-28T03:40:25;21.10;;;17.90;;
77304;SDS011;66364;52.622;7.746;2023-01-28T03:42:26;19.73;;;17.30;;
77304;SDS011;66364;52.622;7.746;2023-01-28T03:44:27;19.70;;;17.60;;
77304;SDS011;66364;52.622;7.746;2023-01-28T03:46:28;21.00;;;18.27;;
77304;SDS011;66364;52.622;7.746;2023-01-28T03:48:39;19.15;;;15.72;;
77304;SDS011;66364;52.622;7.746;2023-01-28T03:50:40;22.35;;;17.87;;
77304;SDS011;66364;52.622;7.746;2023-01-28T03:52:40;19.83;;;17.50;;
77304;SDS011;66364;52.622;7.746;2023-01-28T03:54:41;20.40;;;18.00;;
77304;SDS011;66364;52.622;7.746;2023-01-28T03:56:42;20.00;;;17.47;;
77304;SDS011;66364;52.622;7.746;2023-01-28T03:58:43;22.57;;;17.00;;
77304;SDS011;66364;52.622;7.746;2023-01-28T04:00:44;19.48;;;16.60;;
77304;SDS011;66364;52.622;7.746;2023-01-28T04:02:45;21.07;;;17.12;;
77304;SDS011;66364;52.622;7.746;2023-01-28T04:04:46;17.57;;;15.57;;
77304;SDS011;66364;52.622;7.746;2023-01-28T04:06:48;22.22;;;17.92;;
77304;SDS011;66364;52.622;7.746;2023-01-28T04:08:50;20.23;;;17.27;;
77304;SDS011;66364;52.622;7.746;2023-01-28T04:10:50;22.25;;;17.82;;
77304;SDS011;66364;52.622;7.746;2023-01-28T04:12:52;19.52;;;16.85;;
77304;SDS011;66364;52.622;7.746;2023-01-28T04:14:53;20.08;;;15.83;;
77304;SDS011;66364;52.622;7.746;2023-01-28T04:16:54;20.10;;;17.57;;
77304;SDS011;66364;52.622;7.746;2023-01-28T04:18:55;19.23;;;16.32;;
77304;SDS011;66364;52.622;7.746;2023-01-28T04:20:56;19.43;;;16.73;;
77304;SDS011;66364;52.622;7.746;2023-01-28T04:22:57;21.53;;;18.70;;
77304;SDS011;66364;52.622;7.746;2023-01-28T04:24:59;19.52;;;17.10;;
77304;SDS011;66364;52.622;7.746;2023-01-28T04:26:59;18.33;;;16.30;;
77304;SDS011;66364;52.622;7.746;2023-01-28T04:29:00;18.53;;;15.40;;
77304;SDS011;66364;52.622;7.746;2023-01-28T04:31:01;17.30;;;15.50;;
77304;SDS011;66364;52.622;7.746;2023-01-28T04:33:02;17.60;;;15.70;;
77304;SDS011;66364;52.622;7.746;2023-01-28T04:35:04;17.92;;;14.95;;
77304;SDS011;66364;52.622;7.746;2023-01-28T04:37:06;21.93;;;15.78;;
77304;SDS011;66364;52.622;7.746;2023-01-28T04:39:07;17.80;;;16.00;;
77304;SDS011;66364;52.622;7.746;2023-01-28T04:41:08;19.47;;;15.80;;
77304;SDS011;66364;52.622;7.746;2023-01-28T04:43:08;20.03;;;17.00;;
77304;SDS011;66364;52.622;7.746;2023-01-28T04:45:09;17.80;;;14.93;;
77304;SDS011;66364;52.622;7.746;2023-01-28T04:47:10;16.95;;;15.15;;
77304;SDS011;66364;52.622;7.746;2023-01-28T04:49:11;18.80;;;16.67;;
77304;SDS011;66364;52.622;7.746;2023-01-28T04:51:12;16.93;;;14.40;;
77304;SDS011;66364;52.622;7.746;2023-01-28T04:53:12;17.10;;;15.27;;
77304;SDS011;66364;52.622;7.746;2023-01-28T04:55:13;20.10;;;17.60;;
77304;SDS011;66364;52.622;7.746;2023-01-28T04:57:14;15.50;;;13.93;;
77304;SDS011;66364;52.622;7.746;2023-01-28T04:59:15;16.02;;;13.98;;
77304;SDS011;66364;52.622;7.746;2023-01-28T05:01:16;19.98;;;15.03;;
77304;SDS011;66364;52.622;7.746;2023-01-28T05:03:17;19.80;;;14.95;;
77304;SDS011;66364;52.622;7.746;2023-01-28T05:05:18;17.73;;;14.80;;
77304;SDS011;66364;52.622;7.746;2023-01-28T05:07:20;16.55;;;14.78;;
77304;SDS011;66364;52.622;7.746;2023-01-28T05:09:21;16.23;;;14.50;;
77304;SDS011;66364;52.622;7.746;2023-01-28T05:11:22;17.77;;;15.00;;
77304;SDS011;66364;52.622;7.746;2023-01-28T05:13:24;18.80;;;16.20;;
77304;SDS011;66364;52.622;7.746;2023-01-28T05:15:25;18.02;;;15.08;;
77304;SDS011;66364;52.622;7.746;2023-01-28T05:17:26;20.00;;;16.75;;
77304;SDS011;66364;52.622;7.746;2023-01-28T05:19:28;16.10;;;14.13;;
77304;SDS011;66364;52.622;7.746;2023-01-28T05:21:29;16.25;;;14.18;;
77304;SDS011;66364;52.622;7.746;2023-01-28T05:23:30;15.25;;;13.32;;
77304;SDS011;66364;52.622;7.746;2023-01-28T05:25:31;17.90;;;14.63;;
77304;SDS011;66364;52.622;7.746;2023-01-28T05:27:32;16.32;;;13.55;;
77304;SDS011;66364;52.622;7.746;2023-01-28T05:29:34;16.15;;;13.18;;
77304;SDS011;66364;52.622;7.746;2023-01-28T05:31:35;15.85;;;13.60;;
77304;SDS011;66364;52.622;7.746;2023-01-28T05:33:36;15.58;;;13.28;;
77304;SDS011;66364;52.622;7.746;2023-01-28T05:35:37;14.10;;;12.58;;
77304;SDS011;66364;52.622;7.746;2023-01-28T05:37:44;16.12;;;12.73;;
77304;SDS011;66364;52.622;7.746;2023-01-28T05:39:45;18.92;;;14.33;;
77304;SDS011;66364;52.622;7.746;2023-01-28T05:41:46;16.13;;;13.53;;
77304;SDS011;66364;52.622;7.746;2023-01-28T05:43:47;15.95;;;14.28;;
77304;SDS011;66364;52.622;7.746;2023-01-28T05:45:48;15.15;;;12.53;;
77304;SDS011;66364;52.622;7.746;2023-01-28T05:47:49;15.20;;;12.90;;
77304;SDS011;66364;52.622;7.746;2023-01-28T05:49:50;18.00;;;15.00;;
77304;SDS011;66364;52.622;7.746;2023-01-28T05:51:51;14.20;;;12.70;;
77304;SDS011;66364;52.622;7.746;2023-01-28T05:53:52;16.52;;;13.45;;
77304;SDS011;66364;52.622;7.746;2023-01-28T05:55:53;14.80;;;12.80;;
77304;SDS011;66364;52.622;7.746;2023-01-28T05:57:53;14.50;;;12.90;;
77304;SDS011;66364;52.622;7.746;2023-01-28T05:59:54;15.63;;;13.25;;
77304;SDS011;66364;52.622;7.746;2023-01-28T06:01:55;16.90;;;14.10;;
77304;SDS011;66364;52.622;7.746;2023-01-28T06:03:56;13.78;;;12.47;;
77304;SDS011;66364;52.622;7.746;2023-01-28T06:05:57;15.63;;;13.38;;
77304;SDS011;66364;52.622;7.746;2023-01-28T06:07:58;15.32;;;13.18;;
77304;SDS011;66364;52.622;7.746;2023-01-28T06:10:00;15.78;;;13.03;;
77304;SDS011;66364;52.622;7.746;2023-01-28T06:12:01;18.60;;;12.97;;
77304;SDS011;66364;52.622;7.746;2023-01-28T06:14:02;14.13;;;12.27;;
77304;SDS011;66364;52.622;7.746;2023-01-28T06:16:03;15.23;;;12.35;;
77304;SDS011;66364;52.622;7.746;2023-01-28T06:18:05;15.45;;;12.58;;
77304;SDS011;66364;52.622;7.746;2023-01-28T06:20:06;15.73;;;13.40;;
77304;SDS011;66364;52.622;7.746;2023-01-28T06:22:07;14.38;;;12.20;;
77304;SDS011;66364;52.622;7.746;2023-01-28T06:24:08;16.00;;;13.00;;
77304;SDS011;66364;52.622;7.746;2023-01-28T06:26:09;14.40;;;12.40;;
77304;SDS011;66364;52.622;7.746;2023-01-28T06:28:10;15.18;;;12.33;;
77304;SDS011;66364;52.622;7.746;2023-01-28T06:30:11;15.07;;;11.80;;
77304;SDS011;66364;52.622;7.746;2023-01-28T06:32:14;21.87;;;13.13;;
77304;SDS011;66364;52.622;7.746;2023-01-28T06:34:15;12.50;;;11.03;;
77304;SDS011;66364;52.622;7.746;2023-01-28T06:36:16;15.30;;;11.93;;
77304;SDS011;66364;52.622;7.746;2023-01-28T06:38:18;18.55;;;15.38;;
77304;SDS011;66364;52.622;7.746;2023-01-28T06:40:19;16.63;;;14.23;;
77304;SDS011;66364;52.622;7.746;2023-01-28T06:42:21;18.42;;;14.68;;
77304;SDS011;66364;52.622;7.746;2023-01-28T06:44:22;15.70;;;12.75;;
77304;SDS011;66364;52.622;7.746;2023-01-28T06:46:23;17.00;;;14.40;;
77304;SDS011;66364;52.622;7.746;2023-01-28T06:48:25;16.95;;;14.13;;
77304;SDS011;66364;52.622;7.746;2023-01-28T06:50:27;16.87;;;13.88;;
77304;SDS011;66364;52.622;7.746;2023-01-28T06:52:28;16.60;;;13.30;;
77304;SDS011;66364;52.622;7.746;2023-01-28T06:54:30;15.13;;;13.18;;
77304;SDS011;66364;52.622;7.746;2023-01-28T06:56:31;16.70;;;11.93;;
77304;SDS011;66364;52.622;7.746;2023-01-28T06:58:33;14.63;;;12.58;;
77304;SDS011;66364;52.622;7.746;2023-01-28T07:00:34;15.18;;;13.35;;
77304;SDS011;66364;52.622;7.746;2023-01-28T07:02:36;12.90;;;11.45;;
77304;SDS011;66364;52.622;7.746;2023-01-28T07:04:37;13.65;;;12.13;;
77304;SDS011;66364;52.622;7.746;2023-01-28T07:06:38;17.07;;;13.20;;
77304;SDS011;66364;52.622;7.746;2023-01-28T07:08:39;14.27;;;12.20;;
77304;SDS011;66364;52.622;7.746;2023-01-28T07:10:39;15.43;;;13.27;;
77304;SDS011;66364;52.622;7.746;2023-01-28T07:12:40;15.80;;;13.00;;
77304;SDS011;66364;52.622;7.746;2023-01-28T07:14:42;19.80;;;16.37;;
77304;SDS011;66364;52.622;7.746;2023-01-28T07:16:43;16.73;;;13.32;;
77304;SDS011;66364;52.622;7.746;2023-01-28T07:18:45;16.95;;;14.38;;
77304;SDS011;66364;52.622;7.746;2023-01-28T07:20:47;22.60;;;16.55;;
77304;SDS011;66364;52.622;7.746;2023-01-28T07:22:49;22.27;;;16.17;;
77304;SDS011;66364;52.622;7.746;2023-01-28T07:24:50;24.55;;;19.42;;
77304;SDS011;66364;52.622;7.746;2023-01-28T07:26:52;23.90;;;17.00;;
77304;SDS011;66364;52.622;7.746;2023-01-28T07:28:54;29.45;;;20.37;;
77304;SDS011;66364;52.622;7.746;2023-01-28T07:30:54;26.47;;;19.70;;
77304;SDS011;66364;52.622;7.746;2023-01-28T07:32:58;19.73;;;15.20;;
77304;SDS011;66364;52.622;7.746;2023-01-28T07:35:13;23.18;;;15.98;;
77304;SDS011;66364;52.622;7.746;2023-01-28T07:37:14;23.60;;;17.90;;
77304;SDS011;66364;52.622;7.746;2023-01-28T07:39:16;18.37;;;15.43;;
77304;SDS011;66364;52.622;7.746;2023-01-28T07:41:17;19.40;;;16.33;;
77304;SDS011;66364;52.622;7.746;2023-01-28T07:43:20;19.70;;;15.38;;
77304;SDS011;66364;52.622;7.746;2023-01-28T07:45:21;19.70;;;15.23;;
77304;SDS011;66364;52.622;7.746;2023-01-28T07:47:25;19.00;;;16.20;;
77304;SDS011;66364;52.622;7.746;2023-01-28T07:49:28;20.95;;;15.60;;
77304;SDS011;66364;52.622;7.746;2023-01-28T07:51:31;21.52;;;16.57;;
77304;SDS011;66364;52.622;7.746;2023-01-28T07:53:33;17.65;;;15.28;;
77304;SDS011;66364;52.622;7.746;2023-01-28T07:55:34;21.00;;;18.80;;
77304;SDS011;66364;52.622;7.746;2023-01-28T07:57:36;17.82;;;14.15;;
77304;SDS011;66364;52.622;7.746;2023-01-28T07:59:37;20.43;;;15.07;;
77304;SDS011;66364;52.622;7.746;2023-01-28T08:01:42;22.02;;;15.98;;
77304;SDS011;66364;52.622;7.746;2023-01-28T08:03:44;20.60;;;16.05;;
77304;SDS011;66364;52.622;7.746;2023-01-28T08:05:46;20.35;;;16.60;;
77304;SDS011;66364;52.622;7.746;2023-01-28T08:07:49;18.32;;;15.23;;
77304;SDS011;66364;52.622;7.746;2023-01-28T08:09:50;18.55;;;14.93;;
77304;SDS011;66364;52.622;7.746;2023-01-28T08:11:52;18.15;;;14.65;;
77304;SDS011;66364;52.622;7.746;2023-01-28T08:13:52;19.10;;;15.80;;
77304;SDS011;66364;52.622;7.746;2023-01-28T08:15:54;18.40;;;14.37;;
77304;SDS011;66364;52.622;7.746;2023-01-28T08:17:55;17.73;;;13.68;;
77304;SDS011;66364;52.622;7.746;2023-01-28T08:19:59;17.90;;;14.15;;
77304;SDS011;66364;52.622;7.746;2023-01-28T08:22:00;19.60;;;14.65;;
77304;SDS011;66364;52.622;7.746;2023-01-28T08:24:01;17.57;;;14.87;;
77304;SDS011;66364;52.622;7.746;2023-01-28T08:26:02;18.00;;;13.38;;
77304;SDS011;66364;52.622;7.746;2023-01-28T08:28:03;20.10;;;14.30;;
77304;SDS011;66364;52.622;7.746;2023-01-28T08:30:09;25.45;;;14.90;;
77304;SDS011;66364;52.622;7.746;2023-01-28T08:32:13;21.35;;;13.60;;
77304;SDS011;66364;52.622;7.746;2023-01-28T08:34:14;21.57;;;15.45;;
77304;SDS011;66364;52.622;7.746;2023-01-28T08:36:15;18.02;;;14.55;;
77304;SDS011;66364;52.622;7.746;2023-01-28T08:38:16;27.40;;;17.67;;
77304;SDS011;66364;52.622;7.746;2023-01-28T08:40:18;20.23;;;14.45;;
77304;SDS011;66364;52.622;7.746;2023-01-28T08:42:19;18.30;;;14.98;;
77304;SDS011;66364;52.622;7.746;2023-01-28T08:44:20;19.10;;;15.80;;
77304;SDS011;66364;52.622;7.746;2023-01-28T08:46:20;18.03;;;14.63;;
77304;SDS011;66364;52.622;7.746;2023-01-28T08:48:21;16.90;;;13.90;;
77304;SDS011;66364;52.622;7.746;2023-01-28T08:50:23;17.40;;;15.60;;
77304;SDS011;66364;52.622;7.746;2023-01-28T08:52:25;16.05;;;14.10;;
77304;SDS011;66364;52.622;7.746;2023-01-28T08:54:26;17.45;;;13.22;;
77304;SDS011;66364;52.622;7.746;2023-01-28T08:56:27;15.50;;;13.77;;
77304;SDS011;66364;52.622;7.746;2023-01-28T08:58:28;15.27;;;12.90;;
77304;SDS011;66364;52.622;7.746;2023-01-28T09:00:29;16.70;;;14.33;;
77304;SDS011;66364;52.622;7.746;2023-01-28T09:02:30;20.55;;;14.18;;
77304;SDS011;66364;52.622;7.746;2023-01-28T09:04:31;15.28;;;13.28;;
77304;SDS011;66364;52.622;7.746;2023-01-28T09:06:32;17.10;;;13.97;;
77304;SDS011;66364;52.622;7.746;2023-01-28T09:08:33;14.60;;;13.10;;
77304;SDS011;66364;52.622;7.746;2023-01-28T09:10:34;16.90;;;14.70;;
77304;SDS011;66364;52.622;7.746;2023-01-28T09:12:35;19.65;;;14.50;;
77304;SDS011;66364;52.622;7.746;2023-01-28T09:14:36;19.92;;;14.23;;
77304;SDS011;66364;52.622;7.746;2023-01-28T09:16:37;17.57;;;14.53;;
77304;SDS011;66364;52.622;7.746;2023-01-28T09:18:38;18.27;;;16.37;;
77304;SDS011;66364;52.622;7.746;2023-01-28T09:20:39;20.62;;;15.45;;
77304;SDS011;66364;52.622;7.746;2023-01-28T09:22:40;18.30;;;15.13;;
77304;SDS011;66364;52.622;7.746;2023-01-28T09:24:41;17.77;;;15.88;;
77304;SDS011;66364;52.622;7.746;2023-01-28T09:26:42;16.67;;;14.98;;
77304;SDS011;66364;52.622;7.746;2023-01-28T09:28:43;16.47;;;14.40;;
77304;SDS011;66364;52.622;7.746;2023-01-28T09:30:44;15.13;;;13.30;;
77304;SDS011;66364;52.622;7.746;2023-01-28T09:32:48;14.40;;;12.90;;
77304;SDS011;66364;52.622;7.746;2023-01-28T09:34:58;16.42;;;14.38;;
77304;SDS011;66364;52.622;7.746;2023-01-28T09:36:59;16.97;;;13.98;;
77304;SDS011;66364;52.622;7.746;2023-01-28T09:39:00;15.80;;;14.20;;
77304;SDS011;66364;52.622;7.746;2023-01-28T09:41:02;13.18;;;11.88;;
77304;SDS011;66364;52.622;7.746;2023-01-28T09:45:41;16.05;;;14.35;;
77304;SDS011;66364;52.622;7.746;2023-01-28T09:47:57;18.02;;;14.95;;
77304;SDS011;66364;52.622;7.746;2023-01-28T09:50:00;14.75;;;13.05;;
77304;SDS011;66364;52.622;7.746;2023-01-28T09:52:04;14.63;;;13.03;;
77304;SDS011;66364;52.622;7.746;2023-01-28T09:54:14;15.18;;;13.28;;
77304;SDS011;66364;52.622;7.746;2023-01-28T09:56:29;14.98;;;12.90;;
77304;SDS011;66364;52.622;7.746;2023-01-28T09:58:36;15.85;;;13.05;;
77304;SDS011;66364;52.622;7.746;2023-01-28T10:02:49;14.98;;;13.48;;
77304;SDS011;66364;52.622;7.746;2023-01-28T10:09:53;18.80;;;12.05;;
77304;SDS011;66364;52.622;7.746;2023-01-28T10:16:37;15.00;;;12.23;;
77304;SDS011;66364;52.622;7.746;2023-01-28T10:18:45;10.80;;;9.83;;
77304;SDS011;66364;52.622;7.746;2023-01-28T10:21:01;12.33;;;11.12;;
77304;SDS011;66364;52.622;7.746;2023-01-28T10:25:29;10.68;;;9.78;;
77304;SDS011;66364;52.622;7.746;2023-01-28T10:27:32;10.88;;;9.98;;
77304;SDS011;66364;52.622;7.746;2023-01-28T10:29:36;11.08;;;10.18;;
77304;SDS011;66364;52.622;7.746;2023-01-28T10:31:39;10.95;;;10.00;;
77304;SDS011;66364;52.622;7.746;2023-01-28T10:33:43;10.50;;;9.60;;
77304;SDS011;66364;52.622;7.746;2023-01-28T10:35:44;11.15;;;10.25;;
77304;SDS011;66364;52.622;7.746;2023-01-28T10:37:46;12.18;;;11.08;;
77304;SDS011;66364;52.622;7.746;2023-01-28T10:39:48;10.25;;;9.35;;
77304;SDS011;66364;52.622;7.746;2023-01-28T10:41:50;10.10;;;9.30;;
77304;SDS011;66364;52.622;7.746;2023-01-28T10:43:51;10.50;;;9.60;;
77304;SDS011;66364;52.622;7.746;2023-01-28T10:50:23;9.53;;;8.68;;
77304;SDS011;66364;52.622;7.746;2023-01-28T10:52:26;10.53;;;9.00;;
77304;SDS011;66364;52.622;7.746;2023-01-28T10:54:27;8.47;;;7.77;;
77304;SDS011;66364;52.622;7.746;2023-01-28T10:56:31;12.03;;;7.55;;
77304;SDS011;66364;52.622;7.746;2023-01-28T10:58:35;9.33;;;8.50;;
77304;SDS011;66364;52.622;7.746;2023-01-28T11:00:38;8.20;;;7.30;;
77304;SDS011;66364;52.622;7.746;2023-01-28T11:02:40;8.83;;;8.03;;
77304;SDS011;66364;52.622;7.746;2023-01-28T11:04:41;10.55;;;9.55;;
77304;SDS011;66364;52.622;7.746;2023-01-28T11:06:50;9.48;;;8.68;;
77304;SDS011;66364;52.622;7.746;2023-01-28T11:08:52;8.40;;;7.70;;
77304;SDS011;66364;52.622;7.746;2023-01-28T11:10:54;9.60;;;8.68;;
77304;SDS011;66364;52.622;7.746;2023-01-28T11:12:56;11.35;;;10.25;;
77304;SDS011;66364;52.622;7.746;2023-01-28T11:15:04;11.53;;;10.40;;
77304;SDS011;66364;52.622;7.746;2023-01-28T11:17:04;10.15;;;9.25;;
77304;SDS011;66364;52.622;7.746;2023-01-28T11:19:10;10.13;;;9.13;;
77304;SDS011;66364;52.622;7.746;2023-01-28T11:21:17;10.15;;;9.25;;
77304;SDS011;66364;52.622;7.746;2023-01-28T11:23:23;11.15;;;9.98;;
77304;SDS011;66364;52.622;7.746;2023-01-28T11:25:27;10.38;;;9.38;;
77304;SDS011;66364;52.622;7.746;2023-01-28T11:27:31;9.95;;;8.98;;
77304;SDS011;66364;52.622;7.746;2023-01-28T11:29:33;10.03;;;9.05;;
77304;SDS011;66364;52.622;7.746;2023-01-28T11:31:38;12.28;;;10.98;;
77304;SDS011;66364;52.622;7.746;2023-01-28T11:33:48;10.23;;;9.23;;
77304;SDS011;66364;52.622;7.746;2023-01-28T11:35:55;10.63;;;9.63;;
77304;SDS011;66364;52.622;7.746;2023-01-28T11:38:01;10.60;;;9.60;;
77304;SDS011;66364;52.622;7.746;2023-01-28T11:40:17;10.40;;;9.40;;
77304;SDS011;66364;52.622;7.746;2023-01-28T11:42:20;10.72;;;9.55;;
77304;SDS011;66364;52.622;7.746;2023-01-28T11:44:23;10.90;;;9.10;;
77304;SDS011;66364;52.622;7.746;2023-01-28T11:46:33;10.08;;;9.18;;
77304;SDS011;66364;52.622;7.746;2023-01-28T11:51:31;9.70;;;8.80;;
77304;SDS011;66364;52.622;7.746;2023-01-28T11:53:55;11.03;;;9.35;;
77304;SDS011;66364;52.622;7.746;2023-01-28T12:03:22;8.50;;;7.78;;
77304;SDS011;66364;52.622;7.746;2023-01-28T12:05:29;8.70;;;8.00;;
77304;SDS011;66364;52.622;7.746;2023-01-28T12:10:03;8.20;;;7.50;;
77304;SDS011;66364;52.622;7.746;2023-01-28T12:19:53;8.88;;;7.97;;
77304;SDS011;66364;52.622;7.746;2023-01-28T12:25:03;8.25;;;7.47;;
77304;SDS011;66364;52.622;7.746;2023-01-28T12:29:48;8.98;;;8.18;;
77304;SDS011;66364;52.622;7.746;2023-01-28T12:32:02;8.23;;;7.47;;
77304;SDS011;66364;52.622;7.746;2023-01-28T12:41:41;9.43;;;8.53;;
77304;SDS011;66364;52.622;7.746;2023-01-28T12:44:04;9.05;;;8.25;;
77304;SDS011;66364;52.622;7.746;2023-01-28T12:48:47;9.55;;;8.60;;
77304;SDS011;66364;52.622;7.746;2023-01-28T12:50:57;11.18;;;9.90;;
77304;SDS011;66364;52.622;7.746;2023-01-28T12:55:45;14.85;;;9.20;;
77304;SDS011;66364;52.622;7.746;2023-01-28T12:58:04;10.20;;;8.28;;
77304;SDS011;66364;52.622;7.746;2023-01-28T13:02:33;10.80;;;9.70;;
77304;SDS011;66364;52.622;7.746;2023-01-28T13:07:00;9.53;;;8.48;;
77304;SDS011;66364;52.622;7.746;2023-01-28T13:09:16;10.50;;;8.68;;
77304;SDS011;66364;52.622;7.746;2023-01-28T13:11:23;8.80;;;7.83;;
77304;SDS011;66364;52.622;7.746;2023-01-28T13:13:35;8.63;;;7.83;;
77304;SDS011;66364;52.622;7.746;2023-01-28T13:15:39;8.05;;;7.17;;
77304;SDS011;66364;52.622;7.746;2023-01-28T13:17:59;9.55;;;8.23;;
77304;SDS011;66364;52.622;7.746;2023-01-28T13:20:13;8.25;;;7.10;;
77304;SDS011;66364;52.622;7.746;2023-01-28T13:22:33;13.22;;;11.83;;
77304;SDS011;66364;52.622;7.746;2023-01-28T13:24:36;12.93;;;11.63;;
77304;SDS011;66364;52.622;7.746;2023-01-28T13:28:49;16.75;;;14.95;;